Time;durP1;ratioP1;P1;durP2;ratioP2;P2;SDS_P1;SDS_P2;PMS_P1;PMS_P2;Temp;Humidity;BMP_temperature;BMP_pressure;BME280_temperature;BME280_humidity;BME280_pressure;Samples;Min_cycle;Max_cycle;Signal;HPM_P1;HPM_P2
2021/01/25 00:00:30;;;;;;;1.50;0.90;;;-2.30;99.90;;;;;;2056777;28;20565;-67
2021/01/25 00:01:31;;;;;;;0.83;0.80;;;-2.20;99.90;;;;;;2056488;28;20276;-66
2021/01/25 00:02:32;;;;;;;0.90;0.73;;;-2.20;99.90;;;;;;2056892;28;20308;-67
2021/01/25 00:03:33;;;;;;;1.30;1.00;;;-2.20;99.90;;;;;;2056872;28;20187;-67
2021/01/25 00:04:34;;;;;;;1.25;0.80;;;-2.10;99.90;;;;;;2056682;28;20266;-67
2021/01/25 00:05:37;;;;;;;2.17;0.90;;;-2.10;99.90;;;;;;2056586;28;20543;-67
2021/01/25 00:06:37;;;;;;;1.98;0.98;;;-2.00;99.90;;;;;;2056631;28;20560;-66
2021/01/25 00:07:39;;;;;;;1.00;0.80;;;-2.10;99.90;;;;;;2055983;28;20218;-67
2021/01/25 00:08:40;;;;;;;0.80;0.80;;;-2.00;99.90;;;;;;2056165;28;20188;-67
2021/01/25 00:09:41;;;;;;;3.03;2.13;;;-2.00;99.90;;;;;;2064202;28;20183;-66
2021/01/25 00:10:41;;;;;;;1.80;1.10;;;-2.00;99.90;;;;;;2056699;28;20185;-67
2021/01/25 00:11:42;;;;;;;1.50;1.00;;;-2.10;99.90;;;;;;2056669;28;20185;-67
2021/01/25 00:12:43;;;;;;;2.53;1.00;;;-2.10;99.90;;;;;;2056655;28;20189;-67
2021/01/25 00:13:43;;;;;;;1.37;1.00;;;-2.20;99.90;;;;;;2056804;28;20653;-67
2021/01/25 00:14:44;;;;;;;1.33;0.83;;;-2.20;99.90;;;;;;2056634;28;20258;-67
2021/01/25 00:15:48;;;;;;;1.77;0.90;;;-2.20;99.90;;;;;;2056557;28;20173;-66
2021/01/25 00:16:49;;;;;;;1.23;0.90;;;-2.20;99.90;;;;;;2056739;28;20215;-67
2021/01/25 00:17:49;;;;;;;2.47;1.07;;;-2.20;99.90;;;;;;2056713;28;20183;-67
2021/01/25 00:18:50;;;;;;;1.47;1.00;;;-2.20;99.90;;;;;;2056749;28;20184;-66
2021/01/25 00:19:51;;;;;;;1.50;0.90;;;-2.00;99.90;;;;;;2056212;28;20189;-67
2021/01/25 00:20:51;;;;;;;2.03;1.13;;;-2.00;99.90;;;;;;2055762;28;20222;-66
2021/01/25 00:21:52;;;;;;;1.27;1.00;;;-2.00;99.90;;;;;;2056049;28;20184;-67
2021/01/25 00:22:53;;;;;;;2.87;1.20;;;-2.10;99.90;;;;;;2056190;28;20197;-67
2021/01/25 00:23:53;;;;;;;1.53;1.10;;;-2.10;99.90;;;;;;2067329;28;20176;-67
2021/01/25 00:24:54;;;;;;;1.60;1.13;;;-2.10;99.90;;;;;;2064716;28;20601;-67
2021/01/25 00:25:55;;;;;;;2.30;1.10;;;-2.00;99.90;;;;;;2064711;28;20269;-67
2021/01/25 00:26:55;;;;;;;1.80;1.00;;;-2.00;99.90;;;;;;2071995;28;20174;-66
2021/01/25 00:27:56;;;;;;;1.00;0.90;;;-2.00;99.90;;;;;;2072040;28;20195;-67
2021/01/25 00:28:57;;;;;;;1.03;1.00;;;-2.00;99.90;;;;;;2072081;28;20178;-67
2021/01/25 00:29:57;;;;;;;1.30;0.97;;;-2.00;99.90;;;;;;2072122;28;20175;-67
2021/01/25 00:30:58;;;;;;;2.50;1.10;;;-2.00;99.90;;;;;;2064429;28;20227;-67
2021/01/25 00:31:59;;;;;;;1.30;1.10;;;-2.00;99.90;;;;;;2071909;28;20176;-67
2021/01/25 00:33:00;;;;;;;1.23;1.00;;;-1.90;99.90;;;;;;2072227;28;20528;-67
2021/01/25 00:34:00;;;;;;;1.00;0.90;;;-2.00;99.90;;;;;;2071947;28;20311;-67
2021/01/25 00:35:01;;;;;;;2.33;1.10;;;-2.00;99.90;;;;;;2072232;28;20623;-67
2021/01/25 00:36:02;;;;;;;1.30;1.00;;;-2.00;99.90;;;;;;2064709;28;20176;-67
2021/01/25 00:37:03;;;;;;;1.70;1.15;;;-1.90;99.90;;;;;;2072141;28;20183;-67
2021/01/25 00:38:03;;;;;;;1.33;1.03;;;-1.90;99.90;;;;;;2071933;28;20226;-67
2021/01/25 00:39:04;;;;;;;1.80;1.30;;;-1.90;99.90;;;;;;2072276;28;20566;-66
2021/01/25 00:40:07;;;;;;;1.93;1.20;;;-1.90;99.90;;;;;;2073804;28;20240;-67
2021/01/25 00:41:08;;;;;;;1.15;0.90;;;-1.90;99.90;;;;;;2065301;28;20219;-66
2021/01/25 00:42:09;;;;;;;1.47;1.20;;;-1.80;99.90;;;;;;2065797;28;20192;-66
2021/01/25 00:43:09;;;;;;;1.47;1.10;;;-1.80;99.90;;;;;;2066166;28;20557;-67
2021/01/25 00:44:10;;;;;;;1.23;1.10;;;-1.90;99.90;;;;;;2066264;28;20173;-66
2021/01/25 00:45:11;;;;;;;1.87;1.07;;;-1.90;99.90;;;;;;2073890;28;20227;-66
2021/01/25 00:46:12;;;;;;;1.20;1.05;;;-1.90;99.90;;;;;;2065591;28;20195;-67
2021/01/25 00:47:13;;;;;;;1.13;1.00;;;-1.80;99.90;;;;;;2065877;28;20616;-65
2021/01/25 00:48:13;;;;;;;2.60;1.20;;;-1.90;99.90;;;;;;2066127;28;20227;-66
2021/01/25 00:49:14;;;;;;;4.67;2.60;;;-1.90;99.90;;;;;;2066353;28;20255;-66
2021/01/25 00:50:15;;;;;;;3.33;2.33;;;-1.90;99.90;;;;;;2066169;28;20176;-66
2021/01/25 00:51:16;;;;;;;3.10;1.70;;;-2.00;99.90;;;;;;2066199;28;20203;-66
2021/01/25 00:52:16;;;;;;;2.20;1.63;;;-2.00;99.90;;;;;;2066169;28;20223;-67
2021/01/25 00:53:17;;;;;;;2.27;1.67;;;-2.00;99.90;;;;;;2066253;28;20187;-65
2021/01/25 00:54:18;;;;;;;2.30;1.50;;;-2.00;99.90;;;;;;2065904;28;20178;-67
2021/01/25 00:55:18;;;;;;;3.03;1.83;;;-2.00;99.90;;;;;;2073551;28;20179;-66
2021/01/25 00:56:19;;;;;;;2.60;1.83;;;-2.10;99.90;;;;;;2073582;28;20655;-66
2021/01/25 00:57:20;;;;;;;3.47;1.77;;;-2.00;99.90;;;;;;2073560;28;20186;-66
2021/01/25 00:58:20;;;;;;;2.17;1.70;;;-2.00;99.90;;;;;;2073524;28;20202;-67
2021/01/25 00:59:21;;;;;;;3.63;1.90;;;-2.10;99.90;;;;;;2065975;28;20183;-66
2021/01/25 01:00:22;;;;;;;3.67;2.10;;;-2.10;99.90;;;;;;2066120;28;20179;-66
2021/01/25 01:01:23;;;;;;;2.75;1.77;;;-2.10;99.90;;;;;;2073191;28;20209;-66
2021/01/25 01:02:24;;;;;;;2.30;1.77;;;-2.10;99.90;;;;;;2065630;28;20193;-67
2021/01/25 01:03:24;;;;;;;4.17;2.03;;;-2.10;99.90;;;;;;2057480;28;20172;-67
2021/01/25 01:04:25;;;;;;;4.10;2.27;;;-2.10;99.90;;;;;;2065493;28;20253;-65
2021/01/25 01:05:26;;;;;;;2.47;1.97;;;-2.20;99.90;;;;;;2073359;28;20182;-66
2021/01/25 01:06:26;;;;;;;2.77;2.10;;;-2.20;99.90;;;;;;2073626;28;20182;-67
2021/01/25 01:07:27;;;;;;;3.73;2.00;;;-2.20;99.90;;;;;;2057205;28;20686;-66
2021/01/25 01:08:28;;;;;;;3.20;2.03;;;-2.30;99.90;;;;;;2065460;28;20196;-66
2021/01/25 01:09:28;;;;;;;2.87;2.10;;;-2.20;99.90;;;;;;2073584;28;20234;-67
2021/01/25 01:10:30;;;;;;;4.30;2.30;;;-2.20;99.90;;;;;;2073710;28;20181;-66
2021/01/25 01:11:30;;;;;;;5.03;2.20;;;-2.20;99.90;;;;;;2065405;28;20265;-67
2021/01/25 01:12:32;;;;;;;3.93;2.50;;;-2.30;99.90;;;;;;2065796;28;20190;-66
2021/01/25 01:13:33;;;;;;;3.67;2.40;;;-2.30;99.90;;;;;;2074115;28;20186;-66
2021/01/25 01:14:33;;;;;;;3.73;2.47;;;-2.30;99.90;;;;;;2074506;28;20666;-66
2021/01/25 01:15:34;;;;;;;2.73;2.23;;;-2.30;99.90;;;;;;2067039;28;20623;-66
2021/01/25 01:16:35;;;;;;;3.40;2.80;;;-2.30;99.90;;;;;;2066971;28;20211;-67
2021/01/25 01:17:35;;;;;;;3.13;2.40;;;-2.30;99.90;;;;;;2074392;28;20186;-66
2021/01/25 01:18:36;;;;;;;2.53;2.27;;;-2.30;99.90;;;;;;2074807;28;20182;-67
2021/01/25 01:19:37;;;;;;;4.93;2.90;;;-2.30;99.90;;;;;;2067130;28;20261;-67
2021/01/25 01:20:38;;;;;;;3.40;2.40;;;-2.20;99.90;;;;;;2066832;28;20424;-66
2021/01/25 01:21:38;;;;;;;3.77;2.50;;;-2.30;99.90;;;;;;2066833;28;20238;-66
2021/01/25 01:22:39;;;;;;;5.03;2.60;;;-2.30;99.90;;;;;;2074669;28;20214;-67
2021/01/25 01:23:40;;;;;;;5.10;2.20;;;-2.30;99.90;;;;;;2074586;28;20183;-66
2021/01/25 01:24:41;;;;;;;5.30;2.53;;;-2.30;99.90;;;;;;2066943;28;20267;-66
2021/01/25 01:25:42;;;;;;;3.23;2.60;;;-2.20;99.90;;;;;;2066009;28;20266;-66
2021/01/25 01:26:43;;;;;;;3.00;2.45;;;-2.30;99.90;;;;;;2073458;28;20236;-67
2021/01/25 01:27:44;;;;;;;3.13;2.67;;;-2.30;99.90;;;;;;2073405;28;20609;-67
2021/01/25 01:28:44;;;;;;;2.47;2.07;;;-2.30;99.90;;;;;;2065976;28;20181;-67
2021/01/25 01:29:45;;;;;;;4.50;2.40;;;-2.30;99.90;;;;;;2065980;28;20913;-67
2021/01/25 01:30:46;;;;;;;2.97;2.53;;;-2.30;99.90;;;;;;2066036;28;20218;-66
2021/01/25 01:31:47;;;;;;;3.77;2.70;;;-2.30;99.90;;;;;;2073235;28;20175;-67
2021/01/25 01:32:47;;;;;;;3.90;2.67;;;-2.40;99.90;;;;;;2073482;28;20421;-67
2021/01/25 01:33:48;;;;;;;5.43;2.43;;;-2.30;99.90;;;;;;2065869;28;20175;-66
2021/01/25 01:34:49;;;;;;;3.27;2.37;;;-2.30;99.90;;;;;;2065971;28;20690;-67
2021/01/25 01:35:50;;;;;;;3.50;2.67;;;-2.30;99.90;;;;;;2065977;28;20181;-66
2021/01/25 01:36:51;;;;;;;3.13;2.30;;;-2.40;99.90;;;;;;2073324;28;20174;-66
2021/01/25 01:37:51;;;;;;;3.60;2.83;;;-2.40;99.90;;;;;;2057146;28;20304;-67
2021/01/25 01:38:52;;;;;;;4.23;2.57;;;-2.40;99.90;;;;;;2049252;29;20187;-66
2021/01/25 01:39:53;;;;;;;3.30;2.57;;;-2.30;99.90;;;;;;2065428;28;20603;-66
2021/01/25 01:40:57;;;;;;;3.57;2.70;;;-2.30;99.90;;;;;;2065616;28;20172;-67
2021/01/25 01:41:58;;;;;;;3.63;2.78;;;-2.30;99.90;;;;;;2073367;28;20204;-67
2021/01/25 01:42:59;;;;;;;2.87;2.20;;;-2.30;99.90;;;;;;2073173;28;20562;-66
2021/01/25 01:43:59;;;;;;;4.63;2.67;;;-2.30;99.90;;;;;;2073376;28;20203;-67
2021/01/25 01:45:01;;;;;;;3.70;2.73;;;-2.30;99.90;;;;;;2073383;28;20176;-67
2021/01/25 01:46:02;;;;;;;3.78;2.60;;;-2.30;99.90;;;;;;2065882;28;20722;-66
2021/01/25 01:47:03;;;;;;;3.63;2.60;;;-2.30;99.90;;;;;;2065066;28;20191;-67
2021/01/25 01:48:05;;;;;;;4.43;2.90;;;-2.30;99.90;;;;;;2065069;28;20653;-67
2021/01/25 01:49:06;;;;;;;3.85;2.83;;;-2.30;99.90;;;;;;2073308;28;20182;-66
2021/01/25 01:50:07;;;;;;;4.27;2.60;;;-2.40;99.90;;;;;;2065221;28;20227;-67
2021/01/25 01:51:09;;;;;;;6.55;3.40;;;-2.40;99.90;;;;;;2056091;28;20188;-66
2021/01/25 01:52:10;;;;;;;6.80;3.38;;;-2.30;99.90;;;;;;2057307;28;20184;-67
2021/01/25 01:53:11;;;;;;;3.78;2.75;;;-2.30;99.90;;;;;;2065149;28;20191;-68
2021/01/25 01:54:13;;;;;;;3.53;2.43;;;-2.30;99.90;;;;;;2073439;28;20265;-67
2021/01/25 01:55:14;;;;;;;3.15;2.17;;;-2.40;99.90;;;;;;2072978;28;20277;-67
2021/01/25 01:56:15;;;;;;;4.33;2.60;;;-2.30;99.90;;;;;;2073325;28;20283;-66
2021/01/25 01:57:17;;;;;;;4.03;2.23;;;-2.40;99.90;;;;;;2073244;28;20225;-67
2021/01/25 01:58:20;;;;;;;4.90;2.50;;;-2.40;99.90;;;;;;2073196;28;20577;-67
2021/01/25 01:59:21;;;;;;;5.00;2.17;;;-2.30;99.90;;;;;;2065104;28;20224;-67
2021/01/25 02:00:22;;;;;;;3.00;2.23;;;-2.30;99.90;;;;;;2065260;28;20175;-67
2021/01/25 02:01:22;;;;;;;3.20;2.30;;;-2.30;99.90;;;;;;2072891;28;20654;-67
2021/01/25 02:02:23;;;;;;;3.77;2.50;;;-2.20;99.90;;;;;;2073193;28;20187;-67
2021/01/25 02:03:24;;;;;;;3.13;2.50;;;-2.20;99.90;;;;;;2065663;28;20179;-67
2021/01/25 02:04:26;;;;;;;4.63;2.10;;;-2.20;99.90;;;;;;2073079;28;20558;-67
2021/01/25 02:05:26;;;;;;;2.22;1.95;;;-2.20;99.90;;;;;;2065172;28;20615;-67
2021/01/25 02:06:30;;;;;;;3.70;2.50;;;-2.30;99.90;;;;;;2065180;28;20187;-67
2021/01/25 02:07:32;;;;;;;2.30;1.90;;;-2.30;99.90;;;;;;2072950;28;20209;-67
2021/01/25 02:08:36;;;;;;;3.13;2.22;;;-2.30;99.90;;;;;;2065261;28;20910;-67
2021/01/25 02:09:41;;;;;;;2.97;2.30;;;-2.30;99.90;;;;;;2057395;28;20622;-66
2021/01/25 02:10:43;;;;;;;3.40;2.15;;;-2.30;99.90;;;;;;2057668;28;20222;-66
2021/01/25 02:11:44;;;;;;;4.55;2.28;;;-2.30;99.90;;;;;;2064974;28;20644;-66
2021/01/25 02:12:55;;;;;;;2.92;2.17;;;-2.20;99.90;;;;;;2073026;28;20558;-66
2021/01/25 02:13:56;;;;;;;2.30;2.10;;;-2.10;99.90;;;;;;2071951;28;20841;-67
2021/01/25 02:15:03;;;;;;;4.32;2.13;;;-2.20;99.90;;;;;;2073371;28;20273;-68
2021/01/25 02:16:04;;;;;;;3.95;2.10;;;-2.20;99.90;;;;;;2065085;28;20659;-66
2021/01/25 02:17:06;;;;;;;4.53;2.30;;;-2.30;99.90;;;;;;2065062;28;20186;-68
2021/01/25 02:18:07;;;;;;;3.83;2.47;;;-2.20;99.90;;;;;;2064971;28;20800;-66
2021/01/25 02:19:37;;;;;;;2.70;2.30;;;-2.20;99.90;;;;;;2065160;28;20178;-66
2021/01/25 02:20:42;;;;;;;3.33;1.45;;;-2.20;99.90;;;;;;2073541;28;20234;-66
2021/01/25 02:22:05;;;;;;;3.00;1.67;;;-2.20;99.90;;;;;;2056707;28;20285;-66
2021/01/25 02:23:23;;;;;;;2.10;1.52;;;-2.20;99.90;;;;;;2063089;28;20169;-66
2021/01/25 02:24:36;;;;;;;5.13;1.70;;;-2.10;99.90;;;;;;2071161;28;20210;-66
2021/01/25 02:26:07;;;;;;;2.33;1.92;;;-2.00;99.90;;;;;;2073108;28;20182;-66
2021/01/25 02:27:34;;;;;;;2.45;1.67;;;-2.00;99.90;;;;;;2069517;28;20176;-69
2021/01/25 02:28:42;;;;;;;2.50;1.80;;;-2.00;99.90;;;;;;2073112;28;20187;-66
2021/01/25 02:29:44;;;;;;;2.60;2.03;;;-2.00;99.90;;;;;;2068076;28;20184;-68
2021/01/25 02:30:48;;;;;;;2.10;1.75;;;-1.90;99.90;;;;;;2065038;28;20691;-68
2021/01/25 02:31:49;;;;;;;2.20;1.50;;;-1.90;99.90;;;;;;2065305;28;20199;-67
2021/01/25 02:32:52;;;;;;;2.40;1.65;;;-1.90;99.90;;;;;;2073331;28;20188;-67
2021/01/25 02:33:55;;;;;;;2.13;1.65;;;-1.80;99.90;;;;;;2073357;28;20190;-67
2021/01/25 02:34:57;;;;;;;2.45;1.70;;;-1.90;99.90;;;;;;2065367;28;20187;-67
2021/01/25 02:36:00;;;;;;;2.38;1.70;;;-1.90;99.90;;;;;;2065346;28;20213;-66
2021/01/25 02:37:01;;;;;;;2.78;1.65;;;-1.80;99.90;;;;;;2073190;28;20258;-69
2021/01/25 02:38:04;;;;;;;2.03;1.60;;;-1.90;99.90;;;;;;2081471;28;20195;-67
2021/01/25 02:39:06;;;;;;;2.10;1.70;;;-1.90;99.90;;;;;;2081360;28;20176;-67
2021/01/25 02:40:11;;;;;;;3.17;1.92;;;-1.90;99.90;;;;;;2073232;28;20625;-67
2021/01/25 02:41:14;;;;;;;2.72;1.80;;;-1.90;99.90;;;;;;2057070;28;20221;-66
2021/01/25 02:42:16;;;;;;;3.83;1.73;;;-2.00;99.90;;;;;;2065322;28;20176;-66
2021/01/25 02:43:17;;;;;;;3.42;1.70;;;-2.00;99.90;;;;;;2081435;28;20188;-66
2021/01/25 02:44:19;;;;;;;1.83;1.58;;;-2.00;99.90;;;;;;2081285;28;20288;-67
2021/01/25 02:45:22;;;;;;;1.90;1.70;;;-2.00;99.90;;;;;;2073032;28;20191;-66
2021/01/25 02:46:25;;;;;;;2.22;1.80;;;-2.10;99.90;;;;;;2065222;28;20743;-66
2021/01/25 02:47:28;;;;;;;1.60;1.50;;;-2.00;99.90;;;;;;2073143;28;20686;-66
2021/01/25 02:48:28;;;;;;;2.65;1.60;;;-2.10;99.90;;;;;;2080879;28;20205;-66
2021/01/25 02:49:29;;;;;;;2.97;1.80;;;-2.10;99.90;;;;;;2073457;28;20192;-66
2021/01/25 02:50:30;;;;;;;2.60;1.90;;;-2.00;99.90;;;;;;2073518;28;20187;-66
2021/01/25 02:51:31;;;;;;;2.43;1.70;;;-2.10;99.90;;;;;;2073310;28;20214;-66
2021/01/25 02:52:31;;;;;;;1.87;1.57;;;-2.20;99.90;;;;;;2080867;28;20275;-67
2021/01/25 02:53:32;;;;;;;2.17;1.80;;;-2.10;99.90;;;;;;2080999;28;20210;-66
2021/01/25 02:54:34;;;;;;;2.17;1.77;;;-2.10;99.90;;;;;;2072828;28;20181;-66
2021/01/25 02:55:35;;;;;;;2.35;1.88;;;-2.10;99.90;;;;;;2064921;28;20186;-67
2021/01/25 02:56:36;;;;;;;3.17;1.63;;;-2.10;99.90;;;;;;2072941;28;20683;-66
2021/01/25 02:57:38;;;;;;;1.92;1.60;;;-2.10;99.90;;;;;;2080829;28;20194;-66
2021/01/25 02:58:39;;;;;;;2.15;1.77;;;-2.10;99.90;;;;;;2081077;28;20194;-66
2021/01/25 02:59:40;;;;;;;4.07;1.90;;;-2.10;99.90;;;;;;2072803;28;20707;-66
2021/01/25 03:00:41;;;;;;;2.08;1.80;;;-2.10;99.90;;;;;;2072867;28;20659;-66
2021/01/25 03:01:45;;;;;;;2.33;1.63;;;-2.10;99.90;;;;;;2080847;28;20196;-67
2021/01/25 03:02:46;;;;;;;2.20;1.80;;;-2.10;99.90;;;;;;2080906;28;20183;-66
2021/01/25 03:03:48;;;;;;;2.47;1.45;;;-2.10;99.90;;;;;;2080741;28;20185;-66
2021/01/25 03:04:48;;;;;;;3.85;1.85;;;-2.00;99.90;;;;;;2072955;28;20666;-66
2021/01/25 03:05:50;;;;;;;2.00;1.67;;;-2.00;99.90;;;;;;2072938;28;20186;-66
2021/01/25 03:06:50;;;;;;;1.85;1.67;;;-2.00;99.90;;;;;;2081114;28;20414;-66
2021/01/25 03:07:52;;;;;;;2.33;1.60;;;-1.90;99.90;;;;;;2072568;28;20312;-66
2021/01/25 03:08:52;;;;;;;5.22;2.03;;;-1.90;99.90;;;;;;2064795;28;20180;-67
2021/01/25 03:09:53;;;;;;;2.07;1.67;;;-1.90;99.90;;;;;;2064631;28;20198;-66
2021/01/25 03:10:55;;;;;;;1.67;1.42;;;-2.00;99.90;;;;;;2072622;28;20220;-67
2021/01/25 03:11:56;;;;;;;1.85;1.65;;;-2.00;99.90;;;;;;2073392;28;20185;-66
2021/01/25 03:13:04;;;;;;;2.33;1.83;;;-1.90;99.90;;;;;;2073410;28;20713;-66
2021/01/25 03:14:10;;;;;;;1.92;1.63;;;-1.80;99.90;;;;;;2072567;28;20176;-66
2021/01/25 03:15:13;;;;;;;2.30;1.40;;;-1.80;99.90;;;;;;2073415;28;20165;-66
2021/01/25 03:16:16;;;;;;;2.97;1.92;;;-1.80;99.90;;;;;;2080506;28;20206;-66
2021/01/25 03:17:17;;;;;;;2.88;1.70;;;-1.80;99.90;;;;;;2073390;28;20189;-66
2021/01/25 03:18:17;;;;;;;1.93;1.40;;;-1.80;99.90;;;;;;2073080;28;20722;-67
2021/01/25 03:19:18;;;;;;;1.67;1.57;;;-1.80;99.90;;;;;;2073180;28;20176;-67
2021/01/25 03:20:19;;;;;;;2.13;1.50;;;-1.80;99.90;;;;;;2080730;28;20233;-68
2021/01/25 03:21:19;;;;;;;1.70;1.40;;;-1.90;99.90;;;;;;2080569;28;20223;-66
2021/01/25 03:22:20;;;;;;;2.60;1.70;;;-1.80;99.90;;;;;;2073250;28;20183;-66
2021/01/25 03:23:21;;;;;;;2.23;1.40;;;-1.70;99.90;;;;;;2073393;28;20648;-66
2021/01/25 03:24:22;;;;;;;4.05;1.70;;;-1.70;99.90;;;;;;2072530;28;20208;-67
2021/01/25 03:25:23;;;;;;;1.87;1.40;;;-1.80;99.90;;;;;;2072517;28;20196;-66
2021/01/25 03:26:23;;;;;;;2.00;1.47;;;-1.80;99.90;;;;;;2080657;28;20658;-66
2021/01/25 03:27:24;;;;;;;3.43;1.70;;;-1.90;99.90;;;;;;2080715;28;20732;-67
2021/01/25 03:28:25;;;;;;;2.57;1.60;;;-1.90;99.90;;;;;;2073014;28;20790;-66
2021/01/25 03:29:26;;;;;;;2.40;2.00;;;-1.90;99.90;;;;;;2073218;28;20176;-66
2021/01/25 03:30:26;;;;;;;1.80;1.13;;;-2.00;99.90;;;;;;2073129;28;20199;-66
2021/01/25 03:31:27;;;;;;;1.90;1.50;;;-1.90;99.90;;;;;;2072924;28;20185;-67
2021/01/25 03:32:28;;;;;;;2.47;1.67;;;-1.90;99.90;;;;;;2073186;28;20534;-67
2021/01/25 03:33:29;;;;;;;1.57;1.30;;;-1.90;99.90;;;;;;2073278;28;20188;-66
2021/01/25 03:34:29;;;;;;;2.45;1.70;;;-1.90;99.90;;;;;;2073137;28;20686;-66
2021/01/25 03:35:30;;;;;;;1.73;1.63;;;-1.90;99.90;;;;;;2073223;28;20199;-66
2021/01/25 03:36:31;;;;;;;2.30;1.73;;;-1.90;99.90;;;;;;2073279;28;20607;-66
2021/01/25 03:37:32;;;;;;;2.00;1.57;;;-2.00;99.90;;;;;;2080451;28;20195;-66
2021/01/25 03:38:33;;;;;;;2.40;1.80;;;-1.90;99.90;;;;;;2080769;28;20443;-67
2021/01/25 03:39:34;;;;;;;3.10;1.70;;;-2.00;99.90;;;;;;2073050;28;20216;-67
2021/01/25 03:40:34;;;;;;;2.50;1.83;;;-2.00;99.90;;;;;;2080726;28;20248;-67
2021/01/25 03:41:35;;;;;;;2.20;1.77;;;-1.90;99.90;;;;;;2080094;28;20214;-66
2021/01/25 03:42:36;;;;;;;2.37;1.80;;;-2.00;99.90;;;;;;2073230;28;20189;-66
2021/01/25 03:43:36;;;;;;;2.33;2.00;;;-1.90;99.90;;;;;;2073256;28;20183;-66
2021/01/25 03:44:37;;;;;;;2.30;1.97;;;-2.00;99.90;;;;;;2073329;28;20219;-66
2021/01/25 03:45:38;;;;;;;2.20;1.80;;;-2.00;99.90;;;;;;2080616;28;20187;-66
2021/01/25 03:46:39;;;;;;;3.10;2.20;;;-2.10;99.90;;;;;;2080685;28;20761;-67
2021/01/25 03:47:40;;;;;;;3.13;1.83;;;-2.10;99.90;;;;;;2073149;28;20263;-67
2021/01/25 03:48:41;;;;;;;2.75;1.98;;;-2.20;99.90;;;;;;2073153;28;20744;-66
2021/01/25 03:49:41;;;;;;;3.27;1.90;;;-2.20;99.90;;;;;;2080598;28;20190;-67
2021/01/25 03:50:42;;;;;;;3.83;1.73;;;-2.20;99.90;;;;;;2072549;28;20738;-66
2021/01/25 03:51:43;;;;;;;5.03;2.00;;;-2.20;99.90;;;;;;2063970;28;20199;-67
2021/01/25 03:52:44;;;;;;;4.13;2.17;;;-2.20;99.90;;;;;;2072574;28;20857;-67
2021/01/25 03:53:46;;;;;;;3.03;2.20;;;-2.30;99.90;;;;;;2072582;28;20191;-67
2021/01/25 03:54:47;;;;;;;2.75;1.90;;;-2.30;99.90;;;;;;2072740;28;20185;-67
2021/01/25 03:55:48;;;;;;;2.77;2.20;;;-2.30;99.90;;;;;;2072362;28;20194;-67
2021/01/25 03:56:48;;;;;;;2.43;1.93;;;-2.40;99.90;;;;;;2072080;28;20184;-67
2021/01/25 03:57:49;;;;;;;2.30;1.80;;;-2.40;99.90;;;;;;2071069;28;20186;-67
2021/01/25 03:58:50;;;;;;;2.67;1.60;;;-2.40;99.90;;;;;;2072553;28;20835;-67
2021/01/25 03:59:50;;;;;;;2.80;1.97;;;-2.40;99.90;;;;;;2072284;28;20635;-67
2021/01/25 04:00:51;;;;;;;2.43;1.90;;;-2.40;99.90;;;;;;2072237;28;20266;-66
2021/01/25 04:01:52;;;;;;;2.00;1.80;;;-2.40;99.90;;;;;;2064880;28;20655;-69
2021/01/25 04:02:53;;;;;;;3.00;1.73;;;-2.40;99.90;;;;;;2064916;28;20539;-67
2021/01/25 04:03:53;;;;;;;2.07;1.70;;;-2.40;99.90;;;;;;2072353;28;20332;-66
2021/01/25 04:04:54;;;;;;;2.43;1.73;;;-2.40;99.90;;;;;;2072497;28;20183;-67
2021/01/25 04:05:55;;;;;;;2.47;1.90;;;-2.40;99.90;;;;;;2064826;28;20414;-67
2021/01/25 04:06:55;;;;;;;1.40;1.00;;;-2.30;99.90;;;;;;2064917;28;20213;-67
2021/01/25 04:07:56;;;;;;;3.47;1.30;;;-2.30;99.90;;;;;;2072151;28;20238;-67
2021/01/25 04:08:58;;;;;;;1.40;1.30;;;-2.30;99.90;;;;;;2064441;28;20176;-67
2021/01/25 04:09:59;;;;;;;1.48;1.10;;;-2.30;99.90;;;;;;2064285;28;20284;-67
2021/01/25 04:10:59;;;;;;;2.17;1.30;;;-2.20;99.90;;;;;;2072132;28;20375;-66
2021/01/25 04:12:00;;;;;;;2.23;1.40;;;-2.30;99.90;;;;;;2072251;28;20175;-67
2021/01/25 04:13:01;;;;;;;1.27;0.90;;;-2.20;99.90;;;;;;2072488;28;20255;-67
2021/01/25 04:14:02;;;;;;;1.15;0.95;;;-2.20;99.90;;;;;;2064213;28;20169;-67
2021/01/25 04:15:07;;;;;;;2.20;1.40;;;-2.20;99.90;;;;;;2064771;28;20216;-67
2021/01/25 04:16:08;;;;;;;1.70;1.02;;;-2.10;99.90;;;;;;2072364;28;20170;-67
2021/01/25 04:17:09;;;;;;;1.55;1.20;;;-2.10;99.90;;;;;;2064245;28;20174;-67
2021/01/25 04:18:09;;;;;;;2.70;0.90;;;-2.00;99.90;;;;;;2064226;28;20280;-67
2021/01/25 04:19:10;;;;;;;1.37;0.90;;;-2.00;99.90;;;;;;2064787;28;20175;-67
2021/01/25 04:20:11;;;;;;;1.20;1.03;;;-1.90;99.90;;;;;;2064855;28;20188;-67
2021/01/25 04:21:13;;;;;;;0.95;0.90;;;-1.90;99.90;;;;;;2072089;28;20213;-67
2021/01/25 04:22:13;;;;;;;1.52;1.05;;;-1.90;99.90;;;;;;2072119;28;20185;-66
2021/01/25 04:23:14;;;;;;;1.07;0.97;;;-1.80;99.90;;;;;;2064946;28;20190;-67
2021/01/25 04:24:15;;;;;;;1.70;1.00;;;-1.80;99.90;;;;;;2064580;28;20232;-67
2021/01/25 04:25:15;;;;;;;1.20;1.00;;;-1.70;99.90;;;;;;2064215;28;20181;-67
2021/01/25 04:26:16;;;;;;;0.80;0.80;;;-1.70;99.90;;;;;;2064178;28;20180;-68
2021/01/25 04:27:17;;;;;;;1.88;0.88;;;-1.70;99.90;;;;;;2072430;28;20180;-67
2021/01/25 04:28:18;;;;;;;0.77;0.70;;;-1.70;99.90;;;;;;2064712;28;20199;-66
2021/01/25 04:29:18;;;;;;;0.97;0.80;;;-1.60;99.90;;;;;;2065021;28;20186;-67
2021/01/25 04:30:19;;;;;;;0.80;0.80;;;-1.60;99.90;;;;;;2064694;28;20175;-67
2021/01/25 04:31:20;;;;;;;0.98;0.88;;;-1.60;99.90;;;;;;2064734;28;20525;-67
2021/01/25 04:32:22;;;;;;;0.77;0.73;;;-1.60;99.90;;;;;;2064862;28;20268;-67
2021/01/25 04:33:23;;;;;;;1.15;0.90;;;-1.60;99.90;;;;;;2064903;28;20192;-67
2021/01/25 04:34:23;;;;;;;1.30;1.10;;;-1.60;99.90;;;;;;2064989;28;20220;-66
2021/01/25 04:35:24;;;;;;;1.57;1.33;;;-1.60;99.90;;;;;;2065516;28;20212;-67
2021/01/25 04:36:26;;;;;;;1.30;1.00;;;-1.50;99.90;;;;;;2066632;28;20222;-67
2021/01/25 04:37:26;;;;;;;1.40;0.80;;;-1.50;99.90;;;;;;2064808;28;20192;-67
2021/01/25 04:38:27;;;;;;;5.23;4.00;;;-1.50;99.90;;;;;;2064882;28;20215;-67
2021/01/25 04:39:27;;;;;;;2.00;1.80;;;-1.40;99.90;;;;;;2064699;28;20330;-67
2021/01/25 04:40:28;;;;;;;1.00;0.90;;;-1.40;99.90;;;;;;2072258;28;20290;-67
2021/01/25 04:41:29;;;;;;;1.83;1.60;;;-1.40;99.90;;;;;;2071977;28;20223;-67
2021/01/25 04:42:30;;;;;;;5.90;5.22;;;-1.50;99.90;;;;;;2064935;28;20182;-67
2021/01/25 04:43:31;;;;;;;5.47;4.23;;;-1.50;99.90;;;;;;2072395;28;20199;-67
2021/01/25 04:44:33;;;;;;;5.30;4.50;;;-1.40;99.90;;;;;;2064390;28;20475;-67
2021/01/25 04:45:33;;;;;;;3.30;3.00;;;-1.40;99.90;;;;;;2056037;28;20196;-67
2021/01/25 04:46:34;;;;;;;2.90;2.70;;;-1.40;99.90;;;;;;2064049;28;20188;-67
2021/01/25 04:47:47;;;;;;;1.83;1.73;;;-1.40;99.90;;;;;;2072122;28;20181;-67
2021/01/25 04:48:50;;;;;;;1.95;1.80;;;-1.40;99.90;;;;;;2064282;28;20181;-67
2021/01/25 04:49:51;;;;;;;3.13;1.55;;;-1.40;99.90;;;;;;2064138;28;20662;-67
2021/01/25 04:50:54;;;;;;;1.45;1.35;;;-1.40;99.90;;;;;;2072159;28;20189;-67
2021/01/25 04:51:55;;;;;;;1.20;1.10;;;-1.30;99.90;;;;;;2064017;28;20219;-67
2021/01/25 04:52:57;;;;;;;0.95;0.82;;;-1.30;99.90;;;;;;2056392;28;20179;-66
2021/01/25 04:53:59;;;;;;;0.90;0.80;;;-1.30;99.90;;;;;;2064051;28;20182;-67
2021/01/25 04:55:02;;;;;;;0.90;0.80;;;-1.40;99.90;;;;;;2072197;28;20185;-67
2021/01/25 04:56:03;;;;;;;1.27;0.90;;;-1.40;99.90;;;;;;2071914;28;20633;-67
2021/01/25 04:57:04;;;;;;;1.30;0.75;;;-1.40;99.90;;;;;;2072046;28;20193;-67
2021/01/25 04:58:05;;;;;;;1.25;0.88;;;-1.40;99.90;;;;;;2063929;28;20599;-67
2021/01/25 04:59:06;;;;;;;1.55;0.98;;;-1.40;99.90;;;;;;2056074;28;20188;-67
2021/01/25 05:00:08;;;;;;;1.23;0.70;;;-1.40;99.90;;;;;;2063964;28;20186;-67
2021/01/25 05:01:08;;;;;;;2.03;1.38;;;-1.50;99.90;;;;;;2064480;28;20221;-67
2021/01/25 05:02:10;;;;;;;4.73;1.97;;;-1.50;99.90;;;;;;2063969;28;20575;-67
2021/01/25 05:03:11;;;;;;;3.30;2.20;;;-1.60;99.90;;;;;;2064190;28;20207;-67
2021/01/25 05:04:11;;;;;;;3.00;2.05;;;-1.70;99.90;;;;;;2064755;28;20277;-66
2021/01/25 05:05:12;;;;;;;3.70;1.90;;;-1.70;99.90;;;;;;2064265;28;20181;-69
2021/01/25 05:06:13;;;;;;;3.37;1.87;;;-1.90;99.90;;;;;;2064191;28;20727;-67
2021/01/25 05:07:14;;;;;;;4.57;1.97;;;-2.00;99.90;;;;;;2064760;28;20174;-67
2021/01/25 05:08:14;;;;;;;3.33;1.90;;;-2.00;99.90;;;;;;2064502;28;20197;-67
2021/01/25 05:09:15;;;;;;;3.30;2.00;;;-2.00;99.90;;;;;;2072196;28;20263;-67
2021/01/25 05:10:16;;;;;;;3.60;2.30;;;-2.00;99.90;;;;;;2072085;28;20183;-66
2021/01/25 05:11:18;;;;;;;2.90;2.07;;;-2.10;99.90;;;;;;2064432;28;20241;-67
2021/01/25 05:12:19;;;;;;;3.22;2.38;;;-2.10;99.90;;;;;;2071961;28;20185;-67
2021/01/25 05:13:21;;;;;;;2.63;2.20;;;-2.10;99.90;;;;;;2072024;28;20755;-67
2021/01/25 05:14:22;;;;;;;3.78;2.17;;;-2.10;99.90;;;;;;2072173;28;20668;-68
2021/01/25 05:15:30;;;;;;;2.17;1.47;;;-2.10;99.90;;;;;;2064234;28;20201;-66
2021/01/25 05:16:33;;;;;;;2.05;1.50;;;-2.00;99.90;;;;;;2057172;28;20192;-67
2021/01/25 05:17:34;;;;;;;3.10;1.98;;;-2.00;99.90;;;;;;2056287;28;20192;-67
2021/01/25 05:18:35;;;;;;;3.47;2.70;;;-2.00;99.90;;;;;;2055825;28;20195;-67
2021/01/25 05:19:38;;;;;;;3.83;2.30;;;-2.00;99.90;;;;;;2064009;28;20518;-66
2021/01/25 05:20:41;;;;;;;6.55;2.67;;;-1.90;99.90;;;;;;2064076;28;20184;-67
2021/01/25 05:21:44;;;;;;;3.90;2.85;;;-2.10;99.90;;;;;;2063868;28;20746;-67